createdAt,value
2018-11-07T00:00:00.862Z,9.00
2018-11-07T00:02:30.227Z,9.00
2018-11-07T00:04:59.296Z,9.00
2018-11-07T00:07:28.552Z,9.00
2018-11-07T00:10:03.459Z,9.00
2018-11-07T00:12:32.884Z,9.00
2018-11-07T00:15:01.570Z,9.00
2018-11-07T00:17:31.818Z,9.00
2018-11-07T00:20:00.917Z,9.00
2018-11-07T00:22:29.674Z,9.10
2018-11-07T00:24:58.833Z,9.00
2018-11-07T00:27:28.320Z,9.00
2018-11-07T00:29:57.168Z,9.00
2018-11-07T00:32:26.187Z,9.00
2018-11-07T00:34:54.651Z,9.00
2018-11-07T00:37:23.829Z,9.00
2018-11-07T00:39:53.489Z,9.00
2018-11-07T00:42:22.028Z,9.10
2018-11-07T00:44:50.764Z,9.00
2018-11-07T00:47:19.628Z,9.00
2018-11-07T00:49:48.348Z,8.80
2018-11-07T00:52:17.344Z,8.90
2018-11-07T00:54:47.734Z,8.80
2018-11-07T00:57:16.321Z,8.70
2018-11-07T00:59:46.382Z,8.80
2018-11-07T01:02:15.427Z,8.80
2018-11-07T01:04:45.246Z,8.80
2018-11-07T01:07:14.071Z,8.90
2018-11-07T01:09:43.396Z,8.90
2018-11-07T01:12:11.964Z,8.90
2018-11-07T01:14:40.633Z,8.90
2018-11-07T01:17:09.305Z,8.80
2018-11-07T01:19:39.099Z,9.10
2018-11-07T01:22:07.815Z,8.90
2018-11-07T01:24:36.264Z,8.90
2018-11-07T01:27:05.745Z,8.90
2018-11-07T01:29:34.263Z,9.00
2018-11-07T01:32:03.040Z,8.90
2018-11-07T01:34:31.508Z,8.80
2018-11-07T01:36:59.996Z,8.80
2018-11-07T01:39:28.699Z,8.90
2018-11-07T01:41:57.624Z,8.70
2018-11-07T01:44:26.195Z,8.70
2018-11-07T01:46:54.676Z,8.70
2018-11-07T01:49:23.192Z,8.60
2018-11-07T01:51:52.119Z,8.60
2018-11-07T01:54:20.903Z,8.60
2018-11-07T01:56:50.217Z,8.60
2018-11-07T01:59:19.518Z,8.60
2018-11-07T02:01:48.024Z,8.50
2018-11-07T02:04:16.608Z,8.50
2018-11-07T02:09:14.702Z,8.40
2018-11-07T02:11:44.230Z,8.30
2018-11-07T02:14:12.714Z,8.30
2018-11-07T02:16:41.508Z,8.60
2018-11-07T02:19:10.523Z,8.30
2018-11-07T02:21:39.113Z,8.20
2018-11-07T02:24:08.108Z,8.30
2018-11-07T02:26:36.992Z,8.30
2018-11-07T02:29:11.672Z,8.20
2018-11-07T02:31:41.510Z,8.20
2018-11-07T02:34:10.019Z,8.20
2018-11-07T02:36:39.189Z,8.20
2018-11-07T02:39:10.820Z,8.20
2018-11-07T02:41:39.895Z,8.20
2018-11-07T02:44:08.882Z,8.30
2018-11-07T02:46:37.299Z,8.30
2018-11-07T02:49:05.728Z,8.20
2018-11-07T02:51:34.939Z,8.20
2018-11-07T02:54:03.515Z,8.20
2018-11-07T02:56:32.542Z,8.20
2018-11-07T02:59:01.486Z,8.20
2018-11-07T03:01:30.149Z,8.20
2018-11-07T03:03:59.288Z,8.20
2018-11-07T03:06:27.743Z,8.20
2018-11-07T03:08:58.182Z,8.20
2018-11-07T03:11:27.080Z,8.20
2018-11-07T03:13:55.618Z,8.20
2018-11-07T03:16:24.455Z,8.20
2018-11-07T03:18:53.290Z,8.20
2018-11-07T03:21:22.425Z,8.10
2018-11-07T03:23:51.711Z,8.10
2018-11-07T03:26:21.632Z,8.10
2018-11-07T03:28:50.502Z,8.00
2018-11-07T03:31:18.995Z,8.00
2018-11-07T03:33:47.495Z,8.00
2018-11-07T03:36:16.113Z,7.90
2018-11-07T03:38:45.667Z,7.90
2018-11-07T03:41:14.382Z,7.90
2018-11-07T03:43:42.838Z,7.90
2018-11-07T03:46:11.251Z,7.80
2018-11-07T03:48:39.906Z,7.90
2018-11-07T03:51:09.999Z,7.90
2018-11-07T03:53:38.946Z,7.90
2018-11-07T03:56:07.446Z,7.80
2018-11-07T03:58:36.827Z,7.80
2018-11-07T04:01:05.394Z,7.80
2018-11-07T04:03:33.828Z,7.80
2018-11-07T04:06:02.839Z,7.80
2018-11-07T04:08:31.990Z,7.70
2018-11-07T04:11:00.411Z,7.70
2018-11-07T04:13:29.237Z,7.70
2018-11-07T04:15:58.674Z,7.60
2018-11-07T04:18:27.171Z,7.60
2018-11-07T04:20:55.946Z,7.60
2018-11-07T04:23:24.525Z,7.60
2018-11-07T04:25:53.388Z,7.60
2018-11-07T04:28:21.831Z,7.60
2018-11-07T04:30:50.310Z,7.50
2018-11-07T04:33:19.710Z,7.50
2018-11-07T04:35:48.788Z,7.50
2018-11-07T04:38:17.350Z,7.50
2018-11-07T04:40:45.890Z,7.40
2018-11-07T04:43:15.006Z,7.50
2018-11-07T04:45:43.435Z,7.40
2018-11-07T04:48:11.879Z,7.70
2018-11-07T04:50:41.326Z,7.30
2018-11-07T04:53:09.895Z,7.30
2018-11-07T04:55:38.412Z,7.50
2018-11-07T04:58:06.964Z,7.60
2018-11-07T05:00:35.845Z,7.60
2018-11-07T05:03:04.836Z,7.70
2018-11-07T05:05:33.747Z,7.70
2018-11-07T05:08:02.393Z,7.70
2018-11-07T05:10:30.992Z,7.60
2018-11-07T05:13:00.321Z,7.60
2018-11-07T05:15:29.305Z,7.60
2018-11-07T05:17:57.883Z,7.60
2018-11-07T05:20:26.760Z,7.50
2018-11-07T05:22:55.400Z,7.40
2018-11-07T05:25:23.829Z,7.40
2018-11-07T05:27:52.330Z,7.40
2018-11-07T05:30:20.787Z,7.20
2018-11-07T05:32:49.255Z,7.20
2018-11-07T05:35:17.773Z,7.20
2018-11-07T05:37:46.220Z,7.20
2018-11-07T05:40:14.619Z,7.20
2018-11-07T05:42:43.650Z,7.20
2018-11-07T05:45:12.277Z,7.20
2018-11-07T05:47:40.959Z,7.20
2018-11-07T05:50:10.795Z,7.10
2018-11-07T05:52:40.097Z,7.20
2018-11-07T05:55:09.330Z,7.00
2018-11-07T05:57:38.259Z,7.10
2018-11-07T06:00:09.507Z,7.10
2018-11-07T06:02:38.119Z,7.10
2018-11-07T06:05:08.343Z,7.10
2018-11-07T06:07:38.642Z,7.10
2018-11-07T06:10:10.186Z,7.10
2018-11-07T06:15:09.683Z,7.20
2018-11-07T06:17:38.445Z,7.20
2018-11-07T06:20:08.384Z,7.10
2018-11-07T06:22:37.583Z,7.20
2018-11-07T06:25:07.618Z,7.20
2018-11-07T06:27:36.020Z,7.20
2018-11-07T06:30:07.419Z,7.10
2018-11-07T06:32:36.166Z,7.10
2018-11-07T06:35:06.624Z,7.20
2018-11-07T06:37:35.127Z,7.20
2018-11-07T06:40:05.456Z,7.20
2018-11-07T06:42:34.519Z,7.40
2018-11-07T06:45:03.095Z,7.20
2018-11-07T06:47:31.920Z,7.20
2018-11-07T06:50:00.533Z,7.20
2018-11-07T06:52:29.344Z,7.20
2018-11-07T06:54:58.696Z,7.20
2018-11-07T06:57:27.360Z,7.20
2018-11-07T06:59:55.802Z,7.20
2018-11-07T07:02:24.476Z,7.20
2018-11-07T07:04:52.940Z,7.20
2018-11-07T07:07:21.418Z,7.20
2018-11-07T07:09:50.721Z,7.20
2018-11-07T07:12:19.287Z,7.20
2018-11-07T07:14:47.945Z,7.20
2018-11-07T07:17:16.711Z,7.30
2018-11-07T07:19:45.352Z,7.40
2018-11-07T07:22:14.696Z,7.50
2018-11-07T07:24:43.649Z,7.50
2018-11-07T07:27:12.731Z,7.80
2018-11-07T07:29:41.241Z,9.40
2018-11-07T07:32:10.004Z,8.00
2018-11-07T07:34:38.836Z,8.10
2018-11-07T07:37:08.615Z,7.90
2018-11-07T07:39:37.457Z,7.90
2018-11-07T07:42:06.181Z,7.90
2018-11-07T07:44:34.926Z,7.90
2018-11-07T07:47:03.469Z,8.00
2018-11-07T07:49:32.809Z,8.00
2018-11-07T07:52:01.457Z,8.10
2018-11-07T07:54:30.435Z,8.20
2018-11-07T07:56:59.397Z,8.30
2018-11-07T07:59:27.872Z,8.30
2018-11-07T08:01:56.336Z,8.40
2018-11-07T08:04:24.981Z,8.60
2018-11-07T08:06:53.732Z,8.70
2018-11-07T08:09:22.955Z,8.70
2018-11-07T08:11:51.610Z,8.80
2018-11-07T08:14:20.041Z,8.90
2018-11-07T08:16:48.492Z,9.00
2018-11-07T08:19:16.949Z,9.10
2018-11-07T08:21:45.663Z,9.20
2018-11-07T08:24:14.412Z,9.30
2018-11-07T08:26:42.979Z,9.40
2018-11-07T08:29:11.755Z,9.50
2018-11-07T08:31:40.720Z,9.70
2018-11-07T08:34:09.424Z,9.70
2018-11-07T08:36:38.394Z,9.80
2018-11-07T08:39:10.338Z,10.00
2018-11-07T08:41:39.558Z,10.00
2018-11-07T08:44:08.309Z,10.10
2018-11-07T08:46:37.384Z,10.30
2018-11-07T08:49:06.061Z,10.40
2018-11-07T08:51:35.645Z,10.50
2018-11-07T08:54:04.605Z,10.60
2018-11-07T08:56:33.067Z,10.70
2018-11-07T08:59:01.990Z,10.70
2018-11-07T09:01:30.930Z,10.80
2018-11-07T09:03:59.465Z,11.00
2018-11-07T09:06:28.119Z,11.00
2018-11-07T09:08:56.685Z,11.10
2018-11-07T09:11:25.394Z,11.20
2018-11-07T09:13:53.888Z,11.40
2018-11-07T09:16:22.736Z,11.50
2018-11-07T09:18:51.166Z,11.60
2018-11-07T09:21:19.571Z,11.70
2018-11-07T09:23:47.979Z,11.70
2018-11-07T09:26:17.201Z,11.80
2018-11-07T09:28:46.386Z,11.90
2018-11-07T09:31:15.225Z,11.90
2018-11-07T09:33:43.638Z,11.90
2018-11-07T09:36:12.038Z,11.80
2018-11-07T09:38:40.731Z,11.80
2018-11-07T09:41:09.471Z,11.90
2018-11-07T09:43:38.053Z,12.00
2018-11-07T09:46:08.382Z,12.00
2018-11-07T09:48:37.093Z,12.10
2018-11-07T09:53:34.766Z,12.20
2018-11-07T09:56:03.256Z,12.30
2018-11-07T09:58:31.689Z,12.30
2018-11-07T10:01:01.404Z,12.60
2018-11-07T10:03:29.864Z,12.60
2018-11-07T10:05:58.658Z,12.70
2018-11-07T10:08:28.660Z,12.80
2018-11-07T10:10:57.497Z,12.90
2018-11-07T10:13:27.110Z,13.00
2018-11-07T10:15:56.441Z,13.00
2018-11-07T10:18:27.217Z,13.10
2018-11-07T10:20:55.894Z,13.30
2018-11-07T10:23:24.794Z,13.30
2018-11-07T10:25:53.253Z,13.50
2018-11-07T10:28:22.094Z,13.60
2018-11-07T10:30:50.545Z,13.70
2018-11-07T10:33:19.409Z,13.90
2018-11-07T10:35:47.869Z,14.00
2018-11-07T10:38:16.427Z,14.10
2018-11-07T10:40:44.830Z,14.10
2018-11-07T10:43:13.370Z,14.20
2018-11-07T10:45:41.781Z,14.30
2018-11-07T10:48:10.202Z,14.50
2018-11-07T10:50:38.850Z,14.70
2018-11-07T10:53:07.917Z,14.80
2018-11-07T10:55:36.295Z,14.90
2018-11-07T10:58:05.864Z,15.10
2018-11-07T11:00:40.221Z,15.20
2018-11-07T11:03:14.370Z,15.30
2018-11-07T11:05:43.434Z,15.50
2018-11-07T11:08:12.213Z,15.60
2018-11-07T11:10:41.813Z,15.70
2018-11-07T11:13:10.784Z,15.90
2018-11-07T11:15:39.193Z,16.10
2018-11-07T11:18:07.674Z,16.20
2018-11-07T11:20:40.497Z,16.30
2018-11-07T11:23:09.052Z,16.40
2018-11-07T11:25:37.887Z,16.50
2018-11-07T11:28:06.512Z,16.50
2018-11-07T11:30:34.981Z,16.60
2018-11-07T11:33:04.010Z,16.80
2018-11-07T11:35:32.785Z,16.90
2018-11-07T11:38:01.560Z,17.00
2018-11-07T11:40:30.763Z,17.10
2018-11-07T11:42:59.753Z,17.20
2018-11-07T11:45:28.142Z,17.20
2018-11-07T11:50:25.089Z,17.40
2018-11-07T11:52:53.570Z,17.40
2018-11-07T11:55:23.137Z,17.30
2018-11-07T11:57:51.522Z,17.40
2018-11-07T12:00:21.393Z,17.40
2018-11-07T12:02:49.944Z,17.50
2018-11-07T12:05:19.106Z,17.60
2018-11-07T12:07:47.611Z,17.70
2018-11-07T12:10:19.722Z,17.80
2018-11-07T12:12:50.460Z,17.80
2018-11-07T12:15:19.986Z,17.60
2018-11-07T12:17:49.225Z,17.60
2018-11-07T12:20:18.038Z,17.70
2018-11-07T12:22:46.424Z,17.90
2018-11-07T12:25:15.919Z,17.90
2018-11-07T12:27:44.601Z,18.10
2018-11-07T12:30:15.803Z,18.20
2018-11-07T12:32:45.668Z,18.30
2018-11-07T12:35:15.263Z,18.30
2018-11-07T12:37:43.669Z,18.20
2018-11-07T12:40:12.964Z,18.20
2018-11-07T12:42:41.640Z,18.30
2018-11-07T12:45:12.092Z,18.30
2018-11-07T12:47:41.111Z,18.40
2018-11-07T12:50:14.432Z,18.60
2018-11-07T12:52:43.777Z,18.60
2018-11-07T12:55:12.717Z,18.70
2018-11-07T12:57:41.497Z,18.80
2018-11-07T13:00:20.091Z,18.90
2018-11-07T13:02:50.067Z,19.50
2018-11-07T13:05:19.872Z,19.90
2018-11-07T13:07:49.022Z,19.90
2018-11-07T13:10:18.796Z,20.20
2018-11-07T13:12:47.848Z,20.90
2018-11-07T13:15:16.848Z,22.90
2018-11-07T13:17:46.411Z,23.00
2018-11-07T13:20:17.965Z,24.10
2018-11-07T13:22:49.208Z,24.70
2018-11-07T13:25:18.182Z,25.00
2018-11-07T13:27:46.652Z,25.30
2018-11-07T13:30:20.947Z,26.10
2018-11-07T13:32:50.076Z,26.60
2018-11-07T13:35:19.371Z,26.60
2018-11-07T13:37:50.554Z,26.60
2018-11-07T13:40:23.635Z,27.30
2018-11-07T13:42:52.069Z,27.30
2018-11-07T13:45:21.701Z,27.50
2018-11-07T13:47:51.452Z,27.30
2018-11-07T13:50:20.521Z,28.10
2018-11-07T13:52:49.538Z,28.20
2018-11-07T13:55:18.054Z,27.40
2018-11-07T13:57:47.007Z,27.20
2018-11-07T14:00:20.149Z,26.70
2018-11-07T14:02:49.102Z,26.70
2018-11-07T14:05:17.797Z,25.80
2018-11-07T14:07:46.780Z,25.80
2018-11-07T14:10:20.450Z,26.00
2018-11-07T14:12:50.036Z,25.90
2018-11-07T14:17:47.254Z,25.70
2018-11-07T14:20:15.936Z,24.90
2018-11-07T14:22:45.289Z,24.90
2018-11-07T14:25:15.104Z,24.40
2018-11-07T14:27:43.742Z,25.00
2018-11-07T14:30:14.171Z,25.20
2018-11-07T14:32:48.820Z,25.20
2018-11-07T14:35:17.544Z,24.60
2018-11-07T14:37:46.066Z,24.60
2018-11-07T14:40:14.516Z,24.60
2018-11-07T14:42:42.942Z,25.00
2018-11-07T14:45:12.130Z,24.70
2018-11-07T14:47:41.491Z,25.00
2018-11-07T14:50:13.354Z,24.90
2018-11-07T14:52:42.828Z,24.20
2018-11-07T14:55:12.123Z,24.00
2018-11-07T14:57:41.608Z,24.30
2018-11-07T15:00:13.471Z,25.00
2018-11-07T15:02:44.895Z,23.30
2018-11-07T15:05:14.456Z,23.20
2018-11-07T15:07:43.511Z,22.00
2018-11-07T15:10:13.750Z,20.00
2018-11-07T15:15:13.077Z,19.20
2018-11-07T15:17:42.238Z,18.60
2018-11-07T15:20:12.496Z,17.80
2018-11-07T15:22:41.504Z,17.80
2018-11-07T15:25:11.120Z,17.50
2018-11-07T15:27:41.371Z,17.30
2018-11-07T15:30:11.116Z,17.10
2018-11-07T15:32:40.402Z,16.80
2018-11-07T15:35:09.718Z,16.60
2018-11-07T15:37:38.814Z,16.30
2018-11-07T15:40:11.403Z,16.20
2018-11-07T15:42:40.438Z,16.20
2018-11-07T15:47:39.041Z,16.00
2018-11-07T15:50:13.085Z,15.90
2018-11-07T15:52:41.559Z,15.90
2018-11-07T15:55:10.031Z,15.90
2018-11-07T15:57:38.436Z,15.70
2018-11-07T16:00:11.016Z,15.50
2018-11-07T16:02:40.315Z,15.30
2018-11-07T16:05:09.821Z,15.10
2018-11-07T16:07:39.153Z,15.00
2018-11-07T16:10:09.654Z,14.90
2018-11-07T16:12:38.841Z,14.90
2018-11-07T16:15:10.875Z,14.60
2018-11-07T16:17:39.927Z,14.40
2018-11-07T16:20:11.356Z,14.30
2018-11-07T16:25:09.244Z,14.10
2018-11-07T16:27:38.476Z,14.00
2018-11-07T16:30:10.402Z,14.00
2018-11-07T16:32:39.393Z,13.70
2018-11-07T16:35:08.522Z,13.60
2018-11-07T16:37:37.297Z,13.60
2018-11-07T16:40:09.080Z,13.60
2018-11-07T16:42:38.087Z,13.60
2018-11-07T16:45:09.106Z,13.50
2018-11-07T16:47:37.542Z,13.40
2018-11-07T16:50:09.223Z,13.30
2018-11-07T16:52:38.063Z,13.20
2018-11-07T16:55:07.590Z,13.20
2018-11-07T16:57:38.352Z,13.20
2018-11-07T17:00:15.473Z,13.30
2018-11-07T17:02:45.105Z,13.30
2018-11-07T17:05:14.719Z,13.30
2018-11-07T17:07:43.498Z,13.60
2018-11-07T17:12:41.013Z,13.10
2018-11-07T17:17:38.296Z,12.90
2018-11-07T17:20:09.532Z,12.80
2018-11-07T17:22:38.585Z,12.70
2018-11-07T17:25:09.939Z,12.70
2018-11-07T17:27:39.488Z,12.60
2018-11-07T17:30:10.004Z,12.40
2018-11-07T17:32:39.759Z,12.40
2018-11-07T17:35:11.042Z,12.40
2018-11-07T17:37:39.815Z,12.40
2018-11-07T17:40:12.696Z,12.30
2018-11-07T17:42:41.881Z,12.40
2018-11-07T17:45:13.844Z,12.40
2018-11-07T17:47:43.254Z,12.40
2018-11-07T17:50:13.205Z,12.40
2018-11-07T17:52:42.079Z,12.30
2018-11-07T17:55:12.754Z,12.30
2018-11-07T17:57:41.259Z,12.20
2018-11-07T18:00:14.133Z,12.10
2018-11-07T18:02:43.412Z,12.10
2018-11-07T18:05:12.038Z,11.90
2018-11-07T18:07:40.553Z,12.00
2018-11-07T18:10:11.935Z,11.90
2018-11-07T18:12:40.478Z,11.90
2018-11-07T18:15:09.713Z,12.00
2018-11-07T18:17:39.057Z,12.00
2018-11-07T18:20:09.966Z,12.20
2018-11-07T18:22:38.717Z,12.30
2018-11-07T18:25:09.962Z,12.30
2018-11-07T18:27:39.192Z,12.30
2018-11-07T18:30:10.424Z,12.20
2018-11-07T18:35:32.452Z,12.10
2018-11-07T18:38:01.164Z,12.00
2018-11-07T18:40:30.882Z,12.00
2018-11-07T18:43:01.168Z,12.10
2018-11-07T18:45:30.338Z,12.00
2018-11-07T18:50:28.013Z,12.00
2018-11-07T18:52:56.489Z,12.00
2018-11-07T18:55:25.780Z,12.00
2018-11-07T18:57:54.863Z,12.00
2018-11-07T19:00:24.876Z,12.30
2018-11-07T19:02:54.324Z,11.90
2018-11-07T19:05:22.950Z,11.90
2018-11-07T19:07:51.445Z,11.80
2018-11-07T19:10:21.550Z,11.70
2018-11-07T19:12:50.756Z,11.60
2018-11-07T19:15:19.782Z,11.80
2018-11-07T19:17:49.464Z,11.70
2018-11-07T19:20:18.490Z,11.70
2018-11-07T19:22:47.124Z,11.60
2018-11-07T19:25:17.576Z,11.60
2018-11-07T19:27:46.618Z,11.80
2018-11-07T19:30:17.515Z,11.80
2018-11-07T19:32:47.521Z,11.80
2018-11-07T19:35:17.211Z,12.10
2018-11-07T19:37:46.988Z,12.10
2018-11-07T19:40:23.627Z,11.70
2018-11-07T19:42:52.117Z,12.00
2018-11-07T19:45:21.373Z,12.10
2018-11-07T19:47:50.082Z,12.00
2018-11-07T19:50:19.649Z,11.90
2018-11-07T19:52:48.930Z,11.60
2018-11-07T19:55:21.086Z,11.60
2018-11-07T19:57:54.880Z,11.60
2018-11-07T20:00:23.343Z,11.70
2018-11-07T20:02:51.917Z,11.70
2018-11-07T20:05:21.446Z,11.60
2018-11-07T20:07:51.096Z,11.60
2018-11-07T20:10:20.439Z,11.50
2018-11-07T20:12:50.310Z,11.40
2018-11-07T20:15:20.093Z,11.40
2018-11-07T20:17:49.603Z,11.40
2018-11-07T20:20:18.872Z,11.50
2018-11-07T20:22:47.794Z,11.50
2018-11-07T20:25:16.920Z,11.60
2018-11-07T20:27:45.739Z,11.90
2018-11-07T20:30:15.551Z,11.80
2018-11-07T20:32:44.058Z,11.90
2018-11-07T20:35:17.239Z,12.00
2018-11-07T20:37:46.086Z,12.00
2018-11-07T20:40:17.054Z,12.10
2018-11-07T20:42:45.507Z,12.20
2018-11-07T20:45:15.139Z,12.30
2018-11-07T20:47:43.555Z,12.40
2018-11-07T20:50:15.123Z,12.30
2018-11-07T20:52:44.400Z,11.90
2018-11-07T20:55:13.647Z,11.90
2018-11-07T20:57:42.438Z,11.70
2018-11-07T21:00:18.337Z,11.70
2018-11-07T21:02:47.353Z,11.70
2018-11-07T21:05:17.727Z,11.60
2018-11-07T21:07:46.419Z,11.40
2018-11-07T21:10:20.300Z,11.40
2018-11-07T21:12:49.293Z,11.40
2018-11-07T21:15:18.814Z,11.40
2018-11-07T21:17:47.569Z,11.40
2018-11-07T21:20:16.080Z,11.40
2018-11-07T21:22:45.503Z,11.50
2018-11-07T21:25:14.586Z,11.50
2018-11-07T21:27:43.544Z,11.60
2018-11-07T21:30:13.836Z,11.50
2018-11-07T21:32:43.717Z,11.70
2018-11-07T21:35:13.141Z,11.60
2018-11-07T21:37:42.740Z,11.70
2018-11-07T21:40:14.335Z,11.60
2018-11-07T21:42:43.098Z,11.50
2018-11-07T21:45:12.951Z,11.60
2018-11-07T21:47:42.216Z,11.70
2018-11-07T21:50:13.152Z,11.80
2018-11-07T21:52:41.987Z,11.80
2018-11-07T21:55:11.818Z,11.90
2018-11-07T21:57:41.133Z,12.10
2018-11-07T22:00:12.883Z,12.00
2018-11-07T22:02:42.399Z,12.00
2018-11-07T22:05:12.112Z,11.70
2018-11-07T22:07:41.336Z,11.60
2018-11-07T22:10:11.616Z,11.80
2018-11-07T22:12:40.355Z,11.70
2018-11-07T22:15:10.208Z,11.50
2018-11-07T22:17:39.231Z,11.50
2018-11-07T22:20:14.500Z,11.50
2018-11-07T22:22:43.670Z,11.40
2018-11-07T22:25:12.551Z,11.40
2018-11-07T22:27:41.986Z,11.40
2018-11-07T22:30:12.911Z,13.20
2018-11-07T22:32:42.287Z,11.20
2018-11-07T22:35:12.228Z,11.20
2018-11-07T22:37:41.641Z,11.30
2018-11-07T22:40:12.872Z,11.40
2018-11-07T22:42:41.476Z,11.70
2018-11-07T22:45:10.843Z,11.60
2018-11-07T22:47:40.451Z,11.50
2018-11-07T22:50:11.698Z,11.40
2018-11-07T22:52:41.711Z,11.50
2018-11-07T22:55:10.782Z,11.70
2018-11-07T22:57:46.415Z,11.70
2018-11-07T23:00:22.447Z,11.60
2018-11-07T23:02:53.017Z,11.50
2018-11-07T23:05:21.605Z,11.40
2018-11-07T23:07:51.449Z,11.50
2018-11-07T23:10:19.922Z,11.50
2018-11-07T23:12:49.701Z,11.50
2018-11-07T23:17:55.149Z,11.70
2018-11-07T23:20:23.959Z,11.50
2018-11-07T23:22:52.928Z,11.40
2018-11-07T23:25:21.709Z,11.20
2018-11-07T23:27:51.030Z,11.20
2018-11-07T23:30:20.364Z,11.20
2018-11-07T23:32:49.629Z,11.20
2018-11-07T23:35:18.404Z,11.10
2018-11-07T23:37:46.921Z,11.00
2018-11-07T23:40:15.667Z,10.90
2018-11-07T23:42:44.693Z,10.90
2018-11-07T23:45:13.690Z,10.90
2018-11-07T23:47:43.098Z,11.40
2018-11-07T23:50:11.812Z,11.40
2018-11-07T23:52:46.956Z,11.40
2018-11-07T23:55:18.428Z,11.20
2018-11-07T23:57:47.368Z,11.10
